Time;durP1;ratioP1;P1;durP2;ratioP2;P2;SDS_P1;SDS_P2;PMS_P1;PMS_P2;Temp;Humidity;BMP_temperature;BMP_pressure;BME280_temperature;BME280_humidity;BME280_pressure;Samples;Min_cycle;Max_cycle;Signal;HPM_P1;HPM_P2
2023/04/13 00:00:41;;;;;;;5.10;0.80;;;7.10;99.90;;;;;;5118085;28;20027;-55
2023/04/13 00:03:11;;;;;;;4.60;1.17;;;7.10;99.90;;;;;;5117482;28;20046;-56
2023/04/13 00:05:40;;;;;;;4.03;0.90;;;7.10;99.90;;;;;;5117963;28;20042;-58
2023/04/13 00:08:07;;;;;;;3.33;0.68;;;7.10;99.90;;;;;;5117340;28;20027;-57
2023/04/13 00:10:39;;;;;;;3.80;0.80;;;7.00;99.90;;;;;;5117373;28;20054;-56
2023/04/13 00:13:06;;;;;;;;;;;7.00;99.90;;;;;;5117788;28;20059;-58
2023/04/13 00:15:33;;;;;;;3.15;0.93;;;7.00;99.90;;;;;;5117261;28;19923;-58
2023/04/13 00:17:59;;;;;;;5.55;0.90;;;7.00;99.90;;;;;;5117158;28;20111;-59
2023/04/13 00:20:25;;;;;;;5.15;1.05;;;7.00;99.90;;;;;;5117960;28;20020;-61
2023/04/13 00:22:52;;;;;;;3.10;0.90;;;7.00;99.90;;;;;;5117182;28;20038;-59
2023/04/13 00:25:18;;;;;;;5.25;1.35;;;7.00;99.90;;;;;;5117234;28;20077;-57
2023/04/13 00:27:44;;;;;;;6.97;1.55;;;7.00;99.90;;;;;;5117189;28;20126;-58
2023/04/13 00:30:12;;;;;;;5.90;1.65;;;7.00;99.90;;;;;;5117236;28;20128;-57
2023/04/13 00:32:39;;;;;;;5.05;1.00;;;7.00;99.90;;;;;;5117153;28;20027;-58
2023/04/13 00:35:07;;;;;;;8.55;1.13;;;7.00;99.90;;;;;;5117041;28;20051;-58
2023/04/13 00:37:33;;;;;;;4.72;1.08;;;7.00;99.90;;;;;;5117021;28;20051;-58
2023/04/13 00:39:59;;;;;;;4.53;1.00;;;7.00;99.90;;;;;;5116261;28;20071;-59
2023/04/13 00:42:25;;;;;;;3.53;0.98;;;7.00;99.90;;;;;;5117009;28;20051;-59
2023/04/13 00:44:54;;;;;;;6.38;1.42;;;7.00;99.90;;;;;;5116952;28;20027;-58
2023/04/13 00:47:31;;;;;;;7.38;1.30;;;7.10;99.90;;;;;;5099320;28;20051;-58
2023/04/13 00:50:00;;;;;;;6.72;1.10;;;7.10;99.90;;;;;;5117167;28;20032;-58
2023/04/13 00:52:26;;;;;;;5.25;1.38;;;7.10;99.90;;;;;;5116158;28;20028;-57
2023/04/13 00:54:55;;;;;;;7.18;1.25;;;7.10;99.90;;;;;;5116799;28;20038;-57
2023/04/13 00:57:24;;;;;;;4.43;1.25;;;7.10;99.90;;;;;;5116902;28;20028;-59
2023/04/13 00:59:53;;;;;;;6.70;1.30;;;7.10;99.90;;;;;;5116900;28;20043;-58
2023/04/13 01:02:26;;;;;;;6.75;1.20;;;7.20;99.90;;;;;;5120143;28;20024;-57
2023/04/13 01:04:54;;;;;;;9.50;1.48;;;7.20;99.90;;;;;;5120850;28;20354;-58
2023/04/13 01:07:36;;;;;;;10.20;1.40;;;7.20;99.90;;;;;;5119897;28;20031;-58
2023/04/13 01:10:10;;;;;;;7.72;1.58;;;7.20;99.90;;;;;;5102989;28;20023;-57
2023/04/13 01:12:40;;;;;;;9.65;2.08;;;7.20;99.90;;;;;;5119866;28;20072;-59
2023/04/13 01:15:13;;;;;;;8.43;1.67;;;7.20;99.90;;;;;;5119688;28;20034;-58
2023/04/13 01:17:46;;;;;;;5.57;1.58;;;7.30;99.90;;;;;;5120939;28;20403;-58
2023/04/13 01:20:14;;;;;;;5.45;1.27;;;7.30;99.90;;;;;;5120564;28;20030;-61
2023/04/13 01:22:55;;;;;;;3.65;1.20;;;7.40;99.90;;;;;;5119660;28;20176;-58
2023/04/13 01:25:36;;;;;;;1.90;0.93;;;7.30;99.90;;;;;;5120465;28;20036;-58
2023/04/13 01:28:11;;;;;;;6.88;1.55;;;7.30;99.90;;;;;;5119601;28;20447;-58
2023/04/13 01:30:39;;;;;;;3.75;1.25;;;7.30;99.90;;;;;;5119544;28;20028;-58
2023/04/13 01:33:06;;;;;;;4.32;1.10;;;7.40;99.90;;;;;;5119420;28;20032;-58
2023/04/13 01:35:34;;;;;;;7.97;1.15;;;7.40;99.90;;;;;;5102646;28;20371;-58
2023/04/13 01:38:00;;;;;;;5.25;1.05;;;7.40;99.90;;;;;;5119296;28;20031;-58
2023/04/13 01:40:29;;;;;;;5.80;1.00;;;7.40;99.90;;;;;;5119272;28;20020;-59
2023/04/13 01:42:56;;;;;;;3.95;1.23;;;7.50;99.90;;;;;;5119033;28;20047;-63
2023/04/13 01:45:35;;;;;;;8.27;1.33;;;7.50;99.90;;;;;;5119968;28;20032;-60
2023/04/13 01:48:14;;;;;;;5.25;1.00;;;7.60;99.90;;;;;;5119141;28;20038;-63
2023/04/13 01:51:13;;;;;;;8.52;1.65;;;7.70;99.90;;;;;;5119140;28;20027;-58
2023/04/13 01:53:45;;;;;;;6.85;1.33;;;7.70;99.90;;;;;;5119046;28;20114;-58
2023/04/13 01:56:18;;;;;;;6.70;1.17;;;7.60;99.90;;;;;;5119294;28;20035;-59
2023/04/13 01:58:50;;;;;;;4.45;0.90;;;7.60;99.90;;;;;;5118967;28;20031;-58
2023/04/13 02:01:16;;;;;;;5.28;0.85;;;7.50;99.90;;;;;;5119047;28;20031;-61
2023/04/13 02:03:44;;;;;;;3.50;1.10;;;7.60;99.90;;;;;;5119237;28;20319;-59
2023/04/13 02:06:10;;;;;;;9.52;1.48;;;7.60;99.90;;;;;;5119974;28;20289;-62
2023/04/13 02:08:39;;;;;;;4.53;1.27;;;7.50;99.90;;;;;;5118831;28;20031;-59
2023/04/13 02:11:06;;;;;;;5.10;1.60;;;7.40;99.90;;;;;;5119548;28;20039;-59
2023/04/13 02:13:33;;;;;;;8.18;1.30;;;7.40;99.90;;;;;;5117454;28;20032;-58
2023/04/13 02:16:00;;;;;;;4.45;1.30;;;7.40;99.90;;;;;;5118824;28;20027;-59
2023/04/13 02:18:30;;;;;;;7.28;1.40;;;7.40;99.90;;;;;;5119307;28;20028;-59
2023/04/13 02:21:08;;;;;;;8.85;1.45;;;7.40;99.90;;;;;;5085520;28;20300;-61
2023/04/13 02:23:39;;;;;;;8.02;1.15;;;7.40;99.90;;;;;;5118539;28;20107;-59
2023/04/13 02:26:13;;;;;;;5.20;0.98;;;7.40;99.90;;;;;;5101547;28;20035;-60
2023/04/13 02:28:39;;;;;;;8.13;1.38;;;7.50;99.90;;;;;;5118397;28;20519;-63
2023/04/13 02:31:06;;;;;;;3.95;1.10;;;7.50;99.90;;;;;;5119754;28;20106;-60
2023/04/13 02:33:35;;;;;;;9.23;1.15;;;7.50;99.90;;;;;;5118284;28;20118;-60
2023/04/13 02:36:03;;;;;;;4.00;1.13;;;7.50;99.90;;;;;;5119292;28;20056;-59
2023/04/13 02:38:36;;;;;;;7.55;1.30;;;7.50;99.90;;;;;;5102032;28;20412;-59
2023/04/13 02:41:08;;;;;;;9.55;1.77;;;7.50;99.90;;;;;;5118516;28;20062;-60
2023/04/13 02:43:34;;;;;;;7.57;1.52;;;7.50;99.90;;;;;;5100970;28;20048;-60
2023/04/13 02:46:01;;;;;;;3.65;1.42;;;7.60;99.90;;;;;;5118100;28;20055;-63
2023/04/13 02:48:32;;;;;;;4.43;1.60;;;7.70;99.90;;;;;;5118132;28;20308;-61
2023/04/13 02:51:02;;;;;;;6.28;1.25;;;7.80;99.90;;;;;;5117956;28;20051;-61
2023/04/13 02:53:31;;;;;;;6.88;2.05;;;7.70;99.90;;;;;;5101483;28;20032;-63
2023/04/13 02:56:01;;;;;;;6.03;1.52;;;7.80;99.90;;;;;;5118778;28;20073;-60
2023/04/13 02:58:30;;;;;;;3.05;1.10;;;7.70;99.90;;;;;;5117863;28;20024;-59
2023/04/13 03:00:58;;;;;;;3.70;1.52;;;7.50;99.90;;;;;;5117826;28;20027;-60
2023/04/13 03:03:24;;;;;;;3.40;1.30;;;7.50;99.90;;;;;;5100723;28;20404;-63
2023/04/13 03:05:51;;;;;;;4.93;1.52;;;7.60;99.90;;;;;;5100810;28;20428;-61
2023/04/13 03:08:20;;;;;;;5.50;1.55;;;7.70;99.90;;;;;;5117792;28;20029;-60
2023/04/13 03:11:16;;;;;;;4.60;1.48;;;7.50;99.90;;;;;;5107904;28;20136;-60
2023/04/13 03:13:49;;;;;;;4.28;1.20;;;7.50;99.90;;;;;;5117369;28;20423;-62
2023/04/13 03:16:16;;;;;;;2.95;1.45;;;7.60;99.90;;;;;;5117351;28;20126;-59
2023/04/13 03:18:44;;;;;;;5.30;1.30;;;7.60;99.90;;;;;;5117352;28;20034;-61
2023/04/13 03:21:13;;;;;;;4.32;1.48;;;7.50;99.90;;;;;;5117364;28;20023;-58
2023/04/13 03:23:47;;;;;;;5.32;1.58;;;7.50;99.90;;;;;;5116927;28;20035;-59
2023/04/13 03:26:16;;;;;;;3.95;1.60;;;7.40;99.90;;;;;;5117317;28;20046;-59
2023/04/13 03:28:42;;;;;;;5.05;1.42;;;7.30;99.90;;;;;;5117098;28;20318;-59
2023/04/13 03:31:08;;;;;;;4.78;1.33;;;7.20;99.90;;;;;;5117972;28;20293;-59
2023/04/13 03:33:36;;;;;;;2.55;1.42;;;7.10;99.90;;;;;;5100399;28;20046;-62
2023/04/13 03:36:04;;;;;;;2.72;1.20;;;7.10;99.90;;;;;;5117032;28;20115;-63
2023/04/13 03:38:34;;;;;;;5.07;1.38;;;7.10;99.90;;;;;;5116985;28;20448;-60
2023/04/13 03:41:00;;;;;;;5.72;1.25;;;7.20;99.90;;;;;;5116965;28;20078;-60
2023/04/13 03:43:28;;;;;;;5.07;1.15;;;7.10;99.90;;;;;;5116756;28;20040;-60
2023/04/13 03:46:04;;;;;;;3.83;0.95;;;7.10;99.90;;;;;;5117561;28;20039;-60
2023/04/13 03:48:31;;;;;;;3.47;1.20;;;7.00;99.90;;;;;;5117601;28;20168;-60
2023/04/13 03:50:59;;;;;;;4.32;1.50;;;7.00;99.90;;;;;;5117005;28;20036;-61
2023/04/13 03:53:34;;;;;;;7.18;1.40;;;6.90;99.90;;;;;;5117113;28;20092;-60
2023/04/13 03:55:59;;;;;;;3.78;1.58;;;6.80;99.90;;;;;;5117437;28;20028;-60
2023/04/13 03:58:26;;;;;;;2.78;1.25;;;6.90;99.90;;;;;;5117027;28;20032;-62
2023/04/13 04:00:52;;;;;;;3.05;1.50;;;6.90;99.90;;;;;;5116517;28;20035;-60
2023/04/13 04:03:25;;;;;;;3.58;1.13;;;6.90;99.90;;;;;;5100794;28;20032;-60
2023/04/13 04:05:57;;;;;;;4.05;1.48;;;6.80;99.90;;;;;;5116545;28;20042;-61
2023/04/13 04:08:26;;;;;;;2.83;1.40;;;6.80;99.90;;;;;;5116563;28;20040;-60
2023/04/13 04:10:55;;;;;;;6.10;1.50;;;6.70;99.90;;;;;;5116448;28;20085;-60
2023/04/13 04:13:22;;;;;;;6.00;2.08;;;6.80;99.90;;;;;;5116519;28;20301;-60
2023/04/13 04:15:51;;;;;;;5.85;1.90;;;6.70;99.90;;;;;;5116323;28;20299;-61
2023/04/13 04:18:17;;;;;;;5.10;1.83;;;6.70;99.90;;;;;;5116529;28;20123;-60
2023/04/13 04:20:43;;;;;;;6.43;1.58;;;6.70;99.90;;;;;;5116380;28;20043;-61
2023/04/13 04:23:12;;;;;;;6.50;1.65;;;6.80;99.90;;;;;;5116389;28;20317;-61
2023/04/13 04:25:45;;;;;;;3.83;1.90;;;6.80;99.90;;;;;;5116372;28;20126;-62
2023/04/13 04:28:14;;;;;;;4.97;1.88;;;6.80;99.90;;;;;;5116391;28;20038;-60
2023/04/13 04:30:44;;;;;;;2.60;2.00;;;6.80;99.90;;;;;;5117060;28;20038;-60
2023/04/13 04:33:13;;;;;;;4.05;1.63;;;6.70;99.90;;;;;;5116739;28;20035;-60
2023/04/13 04:35:48;;;;;;;4.00;1.70;;;6.70;99.90;;;;;;5116943;28;20319;-60
2023/04/13 04:38:16;;;;;;;4.70;1.90;;;6.80;99.90;;;;;;5120572;28;20335;-59
2023/04/13 04:40:49;;;;;;;4.72;1.60;;;6.80;99.90;;;;;;5120486;28;20024;-59
2023/04/13 04:43:15;;;;;;;;;;;6.80;99.90;;;;;;5120689;28;20077;-60
2023/04/13 04:45:50;;;;;;;5.32;1.40;;;6.80;99.90;;;;;;5120366;28;19950;-60
2023/04/13 04:48:19;;;;;;;5.05;1.67;;;6.80;99.90;;;;;;5120189;28;20031;-60
2023/04/13 04:50:46;;;;;;;6.05;1.70;;;6.80;99.90;;;;;;5103287;28;20054;-61
2023/04/13 04:53:14;;;;;;;3.85;1.48;;;6.90;99.90;;;;;;5121138;28;20032;-59
2023/04/13 04:55:40;;;;;;;2.95;1.40;;;6.90;99.90;;;;;;5120706;28;20044;-59
2023/04/13 04:58:10;;;;;;;3.20;1.50;;;6.90;99.90;;;;;;5119939;28;20085;-59
2023/04/13 05:00:41;;;;;;;4.90;1.40;;;6.90;99.90;;;;;;5119813;28;20038;-59
2023/04/13 05:03:11;;;;;;;5.93;1.90;;;6.90;99.90;;;;;;5119906;28;20036;-59
2023/04/13 05:05:41;;;;;;;2.47;1.50;;;6.90;99.90;;;;;;5120029;28;20304;-59
2023/04/13 05:08:10;;;;;;;5.57;1.30;;;6.90;99.90;;;;;;5119755;28;20308;-60
2023/04/13 05:10:45;;;;;;;4.28;1.65;;;6.80;99.90;;;;;;5119798;28;20081;-59
2023/04/13 05:13:11;;;;;;;4.88;1.50;;;6.80;99.90;;;;;;5119777;28;20085;-59
2023/04/13 05:15:40;;;;;;;3.28;1.60;;;6.80;99.90;;;;;;5119472;28;20024;-59
2023/04/13 05:18:06;;;;;;;5.68;1.73;;;6.80;99.90;;;;;;5120499;28;20019;-60
2023/04/13 05:20:36;;;;;;;5.45;1.90;;;6.90;99.90;;;;;;5119600;28;20030;-61
2023/04/13 05:23:04;;;;;;;4.50;1.70;;;6.90;99.90;;;;;;5120418;28;20454;-60
2023/04/13 05:25:35;;;;;;;5.05;1.80;;;6.90;99.90;;;;;;5119607;28;20084;-60
2023/04/13 05:28:05;;;;;;;5.82;1.65;;;6.90;99.90;;;;;;5120352;28;20036;-61
2023/04/13 05:30:31;;;;;;;4.50;1.58;;;7.00;99.90;;;;;;5119516;28;20127;-60
2023/04/13 05:32:57;;;;;;;6.45;1.52;;;7.10;99.90;;;;;;5119430;28;20453;-61
2023/04/13 05:35:26;;;;;;;7.72;1.58;;;7.20;99.90;;;;;;5103255;28;20120;-60
2023/04/13 05:37:53;;;;;;;5.47;1.35;;;7.20;99.90;;;;;;5119332;28;20035;-61
2023/04/13 05:40:21;;;;;;;7.18;1.77;;;7.30;99.90;;;;;;5120069;28;20304;-61
2023/04/13 05:42:48;;;;;;;6.25;1.27;;;7.30;99.90;;;;;;5102155;28;20063;-62
2023/04/13 05:45:20;;;;;;;6.85;1.85;;;7.50;99.90;;;;;;5119256;28;20042;-59
2023/04/13 05:48:00;;;;;;;3.70;1.50;;;7.60;99.90;;;;;;5118864;28;20046;-59
2023/04/13 05:50:27;;;;;;;8.70;1.85;;;7.60;99.90;;;;;;5119822;28;20300;-58
2023/04/13 05:52:53;;;;;;;5.13;1.30;;;7.50;99.90;;;;;;5120059;28;20036;-60
2023/04/13 05:55:20;;;;;;;6.30;1.60;;;7.50;99.90;;;;;;5119730;28;20028;-60
2023/04/13 05:57:53;;;;;;;5.18;1.40;;;7.50;99.90;;;;;;5103083;28;20039;-63
2023/04/13 06:00:20;;;;;;;6.13;1.70;;;7.60;99.90;;;;;;5118875;28;20028;-64
2023/04/13 06:02:58;;;;;;;7.43;1.52;;;7.60;99.90;;;;;;5103512;28;20047;-59
2023/04/13 06:05:26;;;;;;;5.60;1.52;;;7.70;99.90;;;;;;5119539;28;20041;-60
2023/04/13 06:07:52;;;;;;;6.03;1.67;;;7.80;99.90;;;;;;5118865;28;20036;-60
2023/04/13 06:10:18;;;;;;;5.57;1.55;;;7.90;99.90;;;;;;5119472;28;20273;-62
2023/04/13 06:12:47;;;;;;;11.73;1.85;;;7.90;99.90;;;;;;5118708;28;20042;-61
2023/04/13 06:15:13;;;;;;;9.27;2.03;;;8.00;99.90;;;;;;5119317;28;20085;-62
2023/04/13 06:17:40;;;;;;;7.47;1.77;;;8.00;99.90;;;;;;5119296;28;20023;-63
2023/04/13 06:20:07;;;;;;;8.88;1.45;;;8.10;99.90;;;;;;5102133;28;20085;-65
2023/04/13 06:22:33;;;;;;;6.68;1.17;;;8.20;99.90;;;;;;5119297;28;20384;-63
2023/04/13 06:25:00;;;;;;;8.85;1.80;;;8.50;99.90;;;;;;5118481;28;20031;-62
2023/04/13 06:27:31;;;;;;;6.40;1.67;;;8.40;99.90;;;;;;5118504;28;20300;-65
2023/04/13 06:29:57;;;;;;;10.15;2.03;;;8.60;99.90;;;;;;5101794;28;20312;-61
2023/04/13 06:32:22;;;;;;;8.60;2.05;;;8.60;99.90;;;;;;5119121;28;20032;-67
2023/04/13 06:34:48;;;;;;;9.32;2.00;;;8.60;99.90;;;;;;5101273;28;20031;-60
2023/04/13 06:37:16;;;;;;;8.32;1.70;;;8.70;99.90;;;;;;5118148;28;20032;-62
2023/04/13 06:39:46;;;;;;;7.72;1.60;;;8.70;99.90;;;;;;5118240;28;20303;-65
2023/04/13 06:42:14;;;;;;;9.43;1.75;;;8.80;99.90;;;;;;5117882;28;20097;-63
2023/04/13 06:44:57;;;;;;;6.15;1.60;;;8.90;99.90;;;;;;5118357;28;20023;-62
2023/04/13 06:47:25;;;;;;;8.65;1.60;;;8.80;99.90;;;;;;5118616;28;20316;-63
2023/04/13 06:49:52;;;;;;;10.60;1.95;;;8.90;99.90;;;;;;5117951;28;20363;-60
2023/04/13 06:52:18;;;;;;;7.60;1.77;;;8.80;99.90;;;;;;5117784;28;20035;-65
2023/04/13 06:54:44;;;;;;;12.52;2.15;;;9.00;99.90;;;;;;5100763;28;20032;-62
2023/04/13 06:57:22;;;;;;;7.70;1.70;;;9.10;99.90;;;;;;5117805;28;20323;-64
2023/04/13 06:59:47;;;;;;;8.43;2.10;;;9.10;99.90;;;;;;5118075;28;20118;-62
2023/04/13 07:02:13;;;;;;;9.00;1.85;;;9.40;99.90;;;;;;5118636;28;20024;-60
2023/04/13 07:04:40;;;;;;;12.27;1.80;;;9.20;97.60;;;;;;5100693;28;20058;-67
2023/04/13 07:07:06;;;;;;;8.73;2.30;;;9.20;99.40;;;;;;5100631;28;20027;-67
2023/04/13 07:09:32;;;;;;;10.85;1.92;;;9.40;97.40;;;;;;5118345;28;20042;-64
2023/04/13 07:12:02;;;;;;;9.02;1.85;;;9.40;95.00;;;;;;5117484;28;20104;-64
2023/04/13 07:14:33;;;;;;;7.70;2.10;;;9.40;94.80;;;;;;5117418;28;20042;-67
2023/04/13 07:16:59;;;;;;;8.13;1.92;;;9.50;93.80;;;;;;5117617;28;20036;-66
2023/04/13 07:19:26;;;;;;;7.68;2.03;;;9.80;88.10;;;;;;5117531;28;20130;-66
2023/04/13 07:21:52;;;;;;;14.10;1.98;;;9.70;77.20;;;;;;5118567;28;20055;-64
2023/04/13 07:24:17;;;;;;;13.23;2.00;;;9.80;69.40;;;;;;5118065;28;20140;-66
2023/04/13 07:26:45;;;;;;;9.82;1.63;;;9.70;67.70;;;;;;5117336;28;20055;-64
2023/04/13 07:29:14;;;;;;;16.92;2.35;;;9.80;73.50;;;;;;5100224;28;20333;-65
2023/04/13 07:31:46;;;;;;;9.90;1.48;;;9.60;63.30;;;;;;5117398;28;20115;-61
2023/04/13 07:34:13;;;;;;;10.07;2.00;;;9.50;70.30;;;;;;5117751;28;20028;-61
2023/04/13 07:36:43;;;;;;;13.15;2.25;;;9.60;72.40;;;;;;5116884;28;20031;-62
2023/04/13 07:39:12;;;;;;;11.60;2.03;;;9.60;70.20;;;;;;5117106;28;20312;-59
2023/04/13 07:41:45;;;;;;;14.70;2.13;;;9.60;66.20;;;;;;5100570;28;20042;-62
2023/04/13 07:44:16;;;;;;;12.07;2.25;;;9.70;60.60;;;;;;5116912;28;20038;-59
2023/04/13 07:46:42;;;;;;;10.40;2.10;;;9.70;53.60;;;;;;5116733;28;20053;-61
2023/04/13 07:49:08;;;;;;;7.43;1.70;;;9.70;55.10;;;;;;5116779;28;20032;-58
2023/04/13 07:51:35;;;;;;;8.77;1.67;;;9.70;48.90;;;;;;5116777;28;20072;-63
2023/04/13 07:54:01;;;;;;;13.23;1.80;;;9.80;55.60;;;;;;5116604;28;20024;-63
2023/04/13 07:56:30;;;;;;;11.45;1.77;;;10.00;44.70;;;;;;5100084;28;20035;-65
2023/04/13 07:58:56;;;;;;;10.77;1.98;;;10.00;39.90;;;;;;5116710;28;20031;-66
2023/04/13 08:01:22;;;;;;;7.88;1.75;;;10.20;39.00;;;;;;5116678;28;20123;-64
2023/04/13 08:03:49;;;;;;;11.88;2.20;;;10.40;32.50;;;;;;5099798;28;20048;-64
2023/04/13 08:06:22;;;;;;;10.15;2.05;;;10.40;36.00;;;;;;5117475;28;20101;-63
2023/04/13 08:08:50;;;;;;;10.18;1.50;;;10.50;19.70;;;;;;5117280;28;20031;-66
2023/04/13 08:11:16;;;;;;;8.70;1.80;;;10.50;14.30;;;;;;5116461;28;20020;-64
2023/04/13 08:13:44;;;;;;;9.95;1.80;;;10.50;20.50;;;;;;5116954;28;20042;-66
2023/04/13 08:16:11;;;;;;;10.57;1.55;;;10.70;15.50;;;;;;5116422;28;20032;-65
2023/04/13 08:18:39;;;;;;;10.02;1.73;;;10.70;8.30;;;;;;5116353;28;20031;-65
2023/04/13 08:21:11;;;;;;;12.68;1.80;;;10.60;4.60;;;;;;5116505;28;20028;-65
2023/04/13 08:23:42;;;;;;;13.95;2.00;;;10.90;1.00;;;;;;5116423;28;20027;-62
2023/04/13 08:26:19;;;;;;;7.70;1.50;;;10.60;1.00;;;;;;5116322;28;20047;-66
2023/04/13 08:28:48;;;;;;;11.40;2.17;;;10.70;3.90;;;;;;5116360;28;20366;-63
2023/04/13 08:31:14;;;;;;;8.98;1.45;;;10.90;1.00;;;;;;5099417;28;20212;-64
2023/04/13 08:33:46;;;;;;;6.90;1.52;;;10.70;1.00;;;;;;5100174;28;20127;-66
2023/04/13 08:36:12;;;;;;;9.68;2.03;;;10.80;1.00;;;;;;5099329;28;20122;-64
2023/04/13 08:38:38;;;;;;;8.10;1.73;;;11.10;1.00;;;;;;5099555;28;20028;-65
2023/04/13 08:41:08;;;;;;;10.82;1.70;;;11.30;1.00;;;;;;5099529;28;20109;-60
2023/04/13 08:43:36;;;;;;;8.70;1.85;;;11.10;1.00;;;;;;5116142;28;20035;-64
2023/04/13 08:46:05;;;;;;;9.45;1.80;;;11.10;1.00;;;;;;5116392;28;20042;-63
2023/04/13 08:48:32;;;;;;;9.68;1.83;;;10.90;1.00;;;;;;5116198;28;20312;-67
2023/04/13 08:51:00;;;;;;;11.30;1.67;;;11.10;1.00;;;;;;5099535;28;20051;-64
2023/04/13 08:53:29;;;;;;;8.23;1.50;;;11.00;1.00;;;;;;5116144;28;20331;-65
2023/04/13 08:55:59;;;;;;;7.97;1.48;;;11.00;1.00;;;;;;5116616;28;20099;-64
2023/04/13 08:58:27;;;;;;;11.20;1.70;;;11.10;1.00;;;;;;5116913;28;20059;-65
2023/04/13 09:00:55;;;;;;;10.70;2.10;;;11.00;1.00;;;;;;5116995;28;20355;-65
2023/04/13 09:03:28;;;;;;;9.48;1.83;;;11.00;1.00;;;;;;5116100;28;20073;-64
2023/04/13 09:06:03;;;;;;;8.45;1.70;;;11.10;1.00;;;;;;5116175;28;20046;-61
2023/04/13 09:08:34;;;;;;;7.35;1.42;;;11.10;1.00;;;;;;5099425;28;20027;-66
2023/04/13 09:11:03;;;;;;;8.55;1.83;;;11.30;1.00;;;;;;5117200;28;20059;-67
2023/04/13 09:13:29;;;;;;;9.25;1.60;;;11.30;1.00;;;;;;5116716;28;20036;-61
2023/04/13 09:15:56;;;;;;;9.10;2.30;;;11.20;1.00;;;;;;5117126;28;20061;-66
2023/04/13 09:18:30;;;;;;;5.85;1.50;;;11.10;1.00;;;;;;5115947;28;20020;-66
2023/04/13 09:21:02;;;;;;;12.13;2.42;;;11.10;1.00;;;;;;5115919;28;20039;-67
2023/04/13 09:23:28;;;;;;;10.98;2.25;;;11.30;1.00;;;;;;5120161;28;20035;-63
2023/04/13 09:26:07;;;;;;;5.05;1.50;;;11.50;1.00;;;;;;5120711;28;20160;-66
2023/04/13 09:28:43;;;;;;;9.30;2.08;;;11.30;1.00;;;;;;5120297;28;20028;-60
2023/04/13 09:31:12;;;;;;;10.23;1.95;;;11.20;1.00;;;;;;5120788;27;20035;-66
2023/04/13 09:33:47;;;;;;;9.48;1.45;;;11.10;1.00;;;;;;5119552;28;20028;-65
2023/04/13 09:36:15;;;;;;;10.38;1.60;;;11.00;1.00;;;;;;5120202;28;20035;-59
2023/04/13 09:38:51;;;;;;;7.32;1.40;;;11.30;1.00;;;;;;5119327;28;20355;-66
2023/04/13 09:41:31;;;;;;;9.95;1.88;;;11.60;1.00;;;;;;5119989;28;20397;-67
2023/04/13 09:44:02;;;;;;;7.97;1.73;;;12.00;1.00;;;;;;5119989;28;20032;-66
2023/04/13 09:46:28;;;;;;;9.45;1.67;;;11.90;1.00;;;;;;5119833;28;20110;-65
2023/04/13 09:49:01;;;;;;;8.32;1.60;;;12.10;1.00;;;;;;5119824;28;20131;-65
2023/04/13 09:51:35;;;;;;;9.65;2.28;;;12.00;1.00;;;;;;5119779;28;20031;-67
2023/04/13 09:54:01;;;;;;;8.25;1.98;;;11.80;1.00;;;;;;5119699;28;20323;-66
2023/04/13 09:56:27;;;;;;;7.20;1.80;;;11.70;1.00;;;;;;5119632;28;20042;-67
2023/04/13 09:58:53;;;;;;;8.98;1.73;;;11.80;1.00;;;;;;5118875;28;20126;-62
2023/04/13 10:01:19;;;;;;;11.30;2.10;;;12.10;1.00;;;;;;5118744;28;20060;-63
2023/04/13 10:03:45;;;;;;;5.25;1.55;;;12.20;1.00;;;;;;5118860;28;20368;-60
2023/04/13 10:06:11;;;;;;;6.80;1.67;;;12.00;1.00;;;;;;5118682;28;20036;-67
2023/04/13 10:08:40;;;;;;;4.57;1.63;;;11.90;1.00;;;;;;5118840;28;20032;-65
2023/04/13 10:11:16;;;;;;;7.70;1.60;;;12.10;1.00;;;;;;5119960;28;20034;-60
2023/04/13 10:13:54;;;;;;;7.30;1.77;;;11.90;1.00;;;;;;5118485;28;20073;-67
2023/04/13 10:16:42;;;;;;;9.02;1.98;;;11.80;1.00;;;;;;5118567;28;20031;-65
2023/04/13 10:19:18;;;;;;;13.38;2.55;;;12.00;1.00;;;;;;5119314;28;20030;-64
2023/04/13 10:21:47;;;;;;;10.57;2.10;;;12.00;1.00;;;;;;5119586;28;20031;-67
2023/04/13 10:24:14;;;;;;;10.40;2.33;;;11.80;1.00;;;;;;5119120;28;20075;-63
2023/04/13 10:26:42;;;;;;;7.78;2.03;;;11.80;1.00;;;;;;5118397;28;20044;-63
2023/04/13 10:29:10;;;;;;;8.02;2.20;;;12.10;1.00;;;;;;5119100;28;20068;-68
2023/04/13 10:31:40;;;;;;;9.80;2.22;;;12.30;1.00;;;;;;5101612;28;20028;-66
2023/04/13 10:34:10;;;;;;;9.02;2.28;;;12.30;1.00;;;;;;5117989;28;20321;-67
2023/04/13 10:36:43;;;;;;;9.10;1.90;;;12.30;1.00;;;;;;5119061;28;20028;-65
2023/04/13 10:39:10;;;;;;;12.32;2.38;;;12.40;1.00;;;;;;5118260;28;20331;-67
2023/04/13 10:41:36;;;;;;;9.80;2.42;;;12.50;1.00;;;;;;5117925;28;20077;-66
2023/04/13 10:44:05;;;;;;;7.43;1.65;;;12.80;1.00;;;;;;5118979;28;20035;-65
2023/04/13 10:46:34;;;;;;;7.93;1.58;;;13.40;1.00;;;;;;5118836;28;20024;-65
2023/04/13 10:49:02;;;;;;;5.93;1.58;;;13.40;1.00;;;;;;5118008;28;20043;-65
2023/04/13 10:51:44;;;;;;;8.60;1.80;;;13.20;1.00;;;;;;5119248;28;20027;-61
2023/04/13 10:54:13;;;;;;;7.20;1.40;;;12.80;1.00;;;;;;5117818;28;20111;-64
2023/04/13 10:56:39;;;;;;;5.43;1.40;;;12.50;1.00;;;;;;5118415;28;20389;-58
2023/04/13 10:59:05;;;;;;;4.00;1.33;;;12.50;1.00;;;;;;5117649;28;20063;-65
2023/04/13 11:01:32;;;;;;;6.85;1.30;;;12.80;1.00;;;;;;5118462;28;20024;-62
2023/04/13 11:04:05;;;;;;;6.47;1.48;;;13.30;1.00;;;;;;5118541;28;20043;-65
2023/04/13 11:06:38;;;;;;;3.58;0.85;;;14.50;99.90;;;;;;5118648;28;20304;-64
2023/04/13 11:09:10;;;;;;;;;;;15.50;1.00;;;;;;5117879;28;20035;-59
2023/04/13 11:11:36;;;;;;;2.90;1.27;;;15.60;99.90;;;;;;5118235;28;20166;-64
2023/04/13 11:14:02;;;;;;;6.85;1.25;;;15.40;1.00;;;;;;5118206;28;20300;-63
2023/04/13 11:16:28;;;;;;;6.63;1.10;;;15.50;1.00;;;;;;5117436;28;20036;-64
2023/04/13 11:19:03;;;;;;;5.65;1.55;;;15.30;99.90;;;;;;5118244;28;20297;-64
2023/04/13 11:21:34;;;;;;;5.82;1.35;;;15.60;99.90;;;;;;5118151;28;20041;-63
2023/04/13 11:24:03;;;;;;;5.68;1.20;;;15.90;1.00;;;;;;5118218;28;20293;-64
2023/04/13 11:26:39;;;;;;;4.05;1.10;;;16.30;1.00;;;;;;5118075;28;20312;-65
2023/04/13 11:29:16;;;;;;;3.25;0.90;;;18.20;1.00;;;;;;5118286;28;20318;-65
2023/04/13 11:31:41;;;;;;;3.50;1.02;;;17.60;99.90;;;;;;5117987;28;20020;-66
2023/04/13 11:34:10;;;;;;;4.53;1.05;;;17.90;1.00;;;;;;5117775;28;20111;-59
2023/04/13 11:36:39;;;;;;;2.78;1.00;;;16.80;1.00;;;;;;5117070;28;20031;-58
2023/04/13 11:39:08;;;;;;;3.10;1.00;;;16.40;99.90;;;;;;5117835;28;20051;-60
2023/04/13 11:41:42;;;;;;;3.63;0.98;;;17.10;99.90;;;;;;5117509;28;20088;-60
2023/04/13 11:44:10;;;;;;;4.25;0.82;;;17.60;1.00;;;;;;5116933;28;20030;-59
2023/04/13 11:46:36;;;;;;;4.90;0.90;;;17.70;1.00;;;;;;5117696;28;20035;-64
2023/04/13 11:49:03;;;;;;;5.47;1.10;;;18.70;99.90;;;;;;5117710;28;20456;-64
2023/04/13 11:51:30;;;;;;;4.90;1.00;;;18.60;1.00;;;;;;5118274;28;20043;-64
2023/04/13 11:53:57;;;;;;;3.63;1.05;;;18.50;1.00;;;;;;5117559;28;20066;-59
2023/04/13 11:56:24;;;;;;;4.60;1.05;;;18.20;1.00;;;;;;5117568;28;20089;-66
2023/04/13 11:58:52;;;;;;;4.65;1.00;;;17.20;51.40;;;;;;5117608;28;20024;-65
2023/04/13 12:01:21;;;;;;;3.28;0.88;;;17.40;99.90;;;;;;5117599;28;20046;-59
2023/04/13 12:03:47;;;;;;;3.38;0.90;;;17.70;1.00;;;;;;5117477;28;20023;-60
2023/04/13 12:06:15;;;;;;;3.15;0.82;;;17.50;91.80;;;;;;5117443;28;20047;-61
2023/04/13 12:08:41;;;;;;;2.58;0.80;;;17.50;1.00;;;;;;5117434;28;20400;-62
2023/04/13 12:11:08;;;;;;;5.40;1.00;;;18.00;1.00;;;;;;5117248;28;20122;-62
2023/04/13 12:13:44;;;;;;;6.15;0.75;;;17.60;1.00;;;;;;5117226;28;20063;-59
2023/04/13 12:16:22;;;;;;;4.07;1.20;;;18.70;1.00;;;;;;5117878;28;20036;-63
2023/04/13 12:18:48;;;;;;;5.22;1.00;;;19.80;99.90;;;;;;5117209;28;20059;-59
2023/04/13 12:21:18;;;;;;;3.33;0.90;;;19.20;99.90;;;;;;5117261;28;20321;-59
2023/04/13 12:23:52;;;;;;;3.75;0.95;;;19.00;99.90;;;;;;5116454;28;20035;-60
2023/04/13 12:26:18;;;;;;;2.20;0.68;;;19.10;99.90;;;;;;5117312;28;20056;-64
2023/04/13 12:28:46;;;;;;;2.95;1.10;;;19.80;99.90;;;;;;5117199;28;20035;-64
2023/04/13 12:31:12;;;;;;;4.43;1.00;;;21.60;1.00;;;;;;5117759;28;20420;-58
2023/04/13 12:33:38;;;;;;;2.90;0.80;;;19.90;1.00;;;;;;5117362;28;20039;-59
2023/04/13 12:36:05;;;;;;;4.20;0.90;;;19.70;1.00;;;;;;5117134;28;20323;-63
2023/04/13 12:38:32;;;;;;;3.10;0.90;;;20.10;1.00;;;;;;5116291;28;20028;-58
2023/04/13 12:40:59;;;;;;;3.10;0.65;;;19.80;1.00;;;;;;5117203;28;20302;-59
2023/04/13 12:43:26;;;;;;;5.50;0.93;;;18.90;1.00;;;;;;5116829;28;20362;-62
2023/04/13 12:45:53;;;;;;;3.30;0.88;;;19.90;1.00;;;;;;5116962;28;20400;-60
2023/04/13 12:48:19;;;;;;;4.38;0.90;;;19.50;1.00;;;;;;5116914;28;20084;-64
2023/04/13 12:50:45;;;;;;;1.92;0.80;;;20.00;1.00;;;;;;5116332;28;20131;-63
2023/04/13 12:53:11;;;;;;;2.70;0.73;;;20.40;1.00;;;;;;5117027;28;20024;-66
2023/04/13 12:55:38;;;;;;;4.82;0.93;;;21.70;1.00;;;;;;5116816;28;20389;-64
2023/04/13 12:58:03;;;;;;;2.40;0.90;;;21.30;1.00;;;;;;5119723;28;20039;-60
2023/04/13 13:00:29;;;;;;;2.97;0.70;;;21.50;1.00;;;;;;5120434;28;20392;-60
2023/04/13 13:02:55;;;;;;;3.05;0.77;;;20.20;1.00;;;;;;5120016;28;20067;-59
2023/04/13 13:05:22;;;;;;;8.07;0.90;;;18.00;1.00;;;;;;5120174;28;20101;-60